sensor_id;sensor_type;location;lat;lon;timestamp;pressure;altitude;pressure_sealevel;temperature;humidity
59272;BME280;45043;51.068;7.026;2023-04-20T00:01:34;100773.06;;;6.48;32.01
59272;BME280;45043;51.068;7.026;2023-04-20T00:04:35;100783.78;;;6.46;31.99
59272;BME280;45043;51.068;7.026;2023-04-20T00:07:35;100779.97;;;6.41;32.04
59272;BME280;45043;51.068;7.026;2023-04-20T00:10:36;100773.06;;;6.39;31.90
59272;BME280;45043;51.068;7.026;2023-04-20T00:13:36;100770.91;;;6.43;31.91
59272;BME280;45043;51.068;7.026;2023-04-20T00:16:37;100761.50;;;6.49;31.91
59272;BME280;45043;51.068;7.026;2023-04-20T00:19:37;100758.22;;;6.55;32.10
59272;BME280;45043;51.068;7.026;2023-04-20T00:22:37;100761.03;;;6.53;31.74
59272;BME280;45043;51.068;7.026;2023-04-20T00:25:38;100738.56;;;6.49;32.09
59272;BME280;45043;51.068;7.026;2023-04-20T00:28:38;100733.47;;;6.48;32.01
59272;BME280;45043;51.068;7.026;2023-04-20T00:31:41;100730.66;;;6.49;31.95
59272;BME280;45043;51.068;7.026;2023-04-20T00:34:41;100727.38;;;6.39;32.05
59272;BME280;45043;51.068;7.026;2023-04-20T00:37:42;100712.50;;;6.38;32.40
59272;BME280;45043;51.068;7.026;2023-04-20T00:40:42;100720.28;;;6.39;32.37
59272;BME280;45043;51.068;7.026;2023-04-20T00:43:51;100718.28;;;6.42;32.43
59272;BME280;45043;51.068;7.026;2023-04-20T00:46:51;100710.53;;;6.40;32.67
59272;BME280;45043;51.068;7.026;2023-04-20T00:49:55;100710.72;;;6.38;32.52
59272;BME280;45043;51.068;7.026;2023-04-20T00:52:56;100699.00;;;6.41;32.89
59272;BME280;45043;51.068;7.026;2023-04-20T00:55:57;100699.81;;;6.42;33.23
59272;BME280;45043;51.068;7.026;2023-04-20T00:58:59;100693.88;;;6.39;33.56
59272;BME280;45043;51.068;7.026;2023-04-20T01:02:00;100691.56;;;6.36;33.78
59272;BME280;45043;51.068;7.026;2023-04-20T01:05:01;100685.28;;;6.37;33.71
59272;BME280;45043;51.068;7.026;2023-04-20T01:08:03;100682.34;;;6.32;34.41
59272;BME280;45043;51.068;7.026;2023-04-20T01:11:03;100682.34;;;6.32;34.77
59272;BME280;45043;51.068;7.026;2023-04-20T01:14:04;100681.00;;;6.28;34.72
59272;BME280;45043;51.068;7.026;2023-04-20T01:17:04;100678.88;;;6.24;34.81
59272;BME280;45043;51.068;7.026;2023-04-20T01:20:06;100677.19;;;6.23;35.10
59272;BME280;45043;51.068;7.026;2023-04-20T01:23:14;100676.38;;;6.22;34.77
59272;BME280;45043;51.068;7.026;2023-04-20T01:26:19;100665.31;;;6.27;34.75
59272;BME280;45043;51.068;7.026;2023-04-20T01:29:19;100671.91;;;6.31;34.95
59272;BME280;45043;51.068;7.026;2023-04-20T01:32:21;100668.47;;;6.30;35.00
59272;BME280;45043;51.068;7.026;2023-04-20T01:35:22;100663.19;;;6.30;35.39
59272;BME280;45043;51.068;7.026;2023-04-20T01:38:23;100662.88;;;6.25;35.66
59272;BME280;45043;51.068;7.026;2023-04-20T01:41:26;100663.19;;;6.22;35.85
59272;BME280;45043;51.068;7.026;2023-04-20T01:44:26;100660.53;;;6.22;35.59
59272;BME280;45043;51.068;7.026;2023-04-20T01:47:29;100653.94;;;6.18;35.69
59272;BME280;45043;51.068;7.026;2023-04-20T01:50:30;100652.13;;;6.10;36.29
59272;BME280;45043;51.068;7.026;2023-04-20T01:53:30;100653.78;;;6.11;36.10
59272;BME280;45043;51.068;7.026;2023-04-20T01:56:30;100642.06;;;6.14;36.21
59272;BME280;45043;51.068;7.026;2023-04-20T01:59:31;100633.34;;;6.22;35.95
59272;BME280;45043;51.068;7.026;2023-04-20T02:02:35;100634.84;;;6.24;36.08
59272;BME280;45043;51.068;7.026;2023-04-20T02:05:35;100629.22;;;6.19;36.26
59272;BME280;45043;51.068;7.026;2023-04-20T02:08:36;100631.22;;;6.17;36.46
59272;BME280;45043;51.068;7.026;2023-04-20T02:11:36;100620.97;;;6.14;36.36
59272;BME280;45043;51.068;7.026;2023-04-20T02:14:39;100608.28;;;6.09;36.67
59272;BME280;45043;51.068;7.026;2023-04-20T02:17:43;100615.34;;;6.01;37.10
59272;BME280;45043;51.068;7.026;2023-04-20T02:20:43;100617.47;;;5.81;37.51
59272;BME280;45043;51.068;7.026;2023-04-20T02:23:44;100608.22;;;5.69;37.97
59272;BME280;45043;51.068;7.026;2023-04-20T02:26:45;100602.75;;;5.54;37.69
59272;BME280;45043;51.068;7.026;2023-04-20T02:29:45;100602.84;;;5.36;37.37
59272;BME280;45043;51.068;7.026;2023-04-20T02:32:47;100599.69;;;5.32;37.14
59272;BME280;45043;51.068;7.026;2023-04-20T02:35:49;100591.97;;;5.31;37.26
59272;BME280;45043;51.068;7.026;2023-04-20T02:38:49;100592.31;;;5.36;37.12
59272;BME280;45043;51.068;7.026;2023-04-20T02:41:50;100580.78;;;5.37;36.84
59272;BME280;45043;51.068;7.026;2023-04-20T02:44:50;100565.47;;;5.40;36.35
59272;BME280;45043;51.068;7.026;2023-04-20T02:47:52;100571.75;;;5.48;36.54
59272;BME280;45043;51.068;7.026;2023-04-20T02:50:56;100567.13;;;5.41;36.55
59272;BME280;45043;51.068;7.026;2023-04-20T02:53:58;100564.16;;;5.45;36.20
59272;BME280;45043;51.068;7.026;2023-04-20T02:57:01;100558.25;;;5.43;36.33
59272;BME280;45043;51.068;7.026;2023-04-20T03:00:03;100554.78;;;5.42;36.07
59272;BME280;45043;51.068;7.026;2023-04-20T03:03:19;100566.66;;;5.46;35.99
59272;BME280;45043;51.068;7.026;2023-04-20T03:06:21;100559.56;;;5.47;35.71
59272;BME280;45043;51.068;7.026;2023-04-20T03:09:27;100561.53;;;5.45;36.06
59272;BME280;45043;51.068;7.026;2023-04-20T03:12:28;100559.06;;;5.43;36.17
59272;BME280;45043;51.068;7.026;2023-04-20T03:15:45;100552.16;;;5.42;35.78
59272;BME280;45043;51.068;7.026;2023-04-20T03:19:21;100556.94;;;5.38;35.75
59272;BME280;45043;51.068;7.026;2023-04-20T03:22:23;100556.56;;;5.33;35.60
59272;BME280;45043;51.068;7.026;2023-04-20T03:25:27;100551.47;;;5.32;36.14
59272;BME280;45043;51.068;7.026;2023-04-20T03:28:32;100552.47;;;5.39;36.33
59272;BME280;45043;51.068;7.026;2023-04-20T03:31:33;100548.69;;;5.41;35.91
59272;BME280;45043;51.068;7.026;2023-04-20T03:34:34;100547.34;;;5.37;35.87
59272;BME280;45043;51.068;7.026;2023-04-20T03:37:38;100551.97;;;5.35;36.16
59272;BME280;45043;51.068;7.026;2023-04-20T03:40:39;100551.97;;;5.35;36.28
59272;BME280;45043;51.068;7.026;2023-04-20T03:43:40;100543.25;;;5.35;36.13
59272;BME280;45043;51.068;7.026;2023-04-20T03:46:42;100532.84;;;5.33;36.11
59272;BME280;45043;51.068;7.026;2023-04-20T03:49:43;100526.75;;;5.33;36.53
59272;BME280;45043;51.068;7.026;2023-04-20T03:52:44;100537.13;;;5.34;36.35
59272;BME280;45043;51.068;7.026;2023-04-20T03:55:45;100530.91;;;5.35;36.53
59272;BME280;45043;51.068;7.026;2023-04-20T03:58:49;100527.75;;;5.32;37.50
59272;BME280;45043;51.068;7.026;2023-04-20T04:01:54;100536.66;;;5.31;37.17
59272;BME280;45043;51.068;7.026;2023-04-20T04:04:56;100528.56;;;5.32;37.70
59272;BME280;45043;51.068;7.026;2023-04-20T04:07:57;100526.59;;;5.34;37.42
59272;BME280;45043;51.068;7.026;2023-04-20T04:10:59;100521.81;;;5.38;37.55
59272;BME280;45043;51.068;7.026;2023-04-20T04:13:59;100516.09;;;5.43;37.71
59272;BME280;45043;51.068;7.026;2023-04-20T04:17:02;100525.63;;;5.44;38.34
59272;BME280;45043;51.068;7.026;2023-04-20T04:20:05;100517.56;;;5.45;37.82
59272;BME280;45043;51.068;7.026;2023-04-20T04:23:09;100511.78;;;5.41;37.72
59272;BME280;45043;51.068;7.026;2023-04-20T04:26:15;100522.19;;;5.43;38.11
59272;BME280;45043;51.068;7.026;2023-04-20T04:29:17;100519.69;;;5.41;38.08
59272;BME280;45043;51.068;7.026;2023-04-20T04:32:19;100518.88;;;5.41;38.03
59272;BME280;45043;51.068;7.026;2023-04-20T04:35:22;100511.97;;;5.48;38.27
59272;BME280;45043;51.068;7.026;2023-04-20T04:38:23;100518.88;;;5.49;37.85
59272;BME280;45043;51.068;7.026;2023-04-20T04:41:24;100517.09;;;5.50;38.46
59272;BME280;45043;51.068;7.026;2023-04-20T04:44:26;100516.09;;;5.51;38.57
59272;BME280;45043;51.068;7.026;2023-04-20T04:47:32;100515.09;;;5.52;38.38
59272;BME280;45043;51.068;7.026;2023-04-20T04:50:34;100513.78;;;5.48;38.49
59272;BME280;45043;51.068;7.026;2023-04-20T04:53:35;100510.00;;;5.50;38.79
59272;BME280;45043;51.068;7.026;2023-04-20T04:56:36;100511.66;;;5.51;39.01
59272;BME280;45043;51.068;7.026;2023-04-20T04:59:36;100506.56;;;5.50;39.49
59272;BME280;45043;51.068;7.026;2023-04-20T05:02:37;100510.16;;;5.49;39.96
59272;BME280;45043;51.068;7.026;2023-04-20T05:05:37;100511.31;;;5.46;40.72
59272;BME280;45043;51.068;7.026;2023-04-20T05:08:37;100505.69;;;5.41;41.31
59272;BME280;45043;51.068;7.026;2023-04-20T05:11:38;100512.59;;;5.34;41.58
59272;BME280;45043;51.068;7.026;2023-04-20T05:14:38;100509.50;;;5.38;42.72
59272;BME280;45043;51.068;7.026;2023-04-20T05:17:39;100512.28;;;5.45;44.13
59272;BME280;45043;51.068;7.026;2023-04-20T05:20:39;100507.06;;;5.61;44.34
59272;BME280;45043;51.068;7.026;2023-04-20T05:23:40;100511.19;;;5.72;44.53
59272;BME280;45043;51.068;7.026;2023-04-20T05:26:41;100508.22;;;5.83;43.95
59272;BME280;45043;51.068;7.026;2023-04-20T05:29:41;100510.84;;;6.00;44.51
59272;BME280;45043;51.068;7.026;2023-04-20T05:32:42;100503.56;;;6.26;43.53
59272;BME280;45043;51.068;7.026;2023-04-20T05:35:43;100499.13;;;6.27;43.53
59272;BME280;45043;51.068;7.026;2023-04-20T05:38:43;100502.13;;;6.24;43.67
59272;BME280;45043;51.068;7.026;2023-04-20T05:41:43;100505.22;;;6.35;43.45
59272;BME280;45043;51.068;7.026;2023-04-20T05:44:44;100508.16;;;6.49;44.07
59272;BME280;45043;51.068;7.026;2023-04-20T05:47:52;100502.78;;;6.81;44.20
59272;BME280;45043;51.068;7.026;2023-04-20T05:50:53;100504.34;;;7.07;43.79
59272;BME280;45043;51.068;7.026;2023-04-20T05:53:54;100502.66;;;7.14;44.01
59272;BME280;45043;51.068;7.026;2023-04-20T05:56:55;100496.63;;;7.28;43.60
59272;BME280;45043;51.068;7.026;2023-04-20T05:59:59;100504.50;;;7.37;43.11
59272;BME280;45043;51.068;7.026;2023-04-20T06:02:59;100505.53;;;7.35;43.06
59272;BME280;45043;51.068;7.026;2023-04-20T06:06:00;100494.63;;;7.30;43.10
59272;BME280;45043;51.068;7.026;2023-04-20T06:09:00;100491.41;;;7.20;43.05
59272;BME280;45043;51.068;7.026;2023-04-20T06:12:01;100498.47;;;7.28;43.07
59272;BME280;45043;51.068;7.026;2023-04-20T06:15:01;100497.88;;;7.41;42.99
59272;BME280;45043;51.068;7.026;2023-04-20T06:18:03;100496.25;;;7.40;43.23
59272;BME280;45043;51.068;7.026;2023-04-20T06:21:04;100497.78;;;7.57;43.03
59272;BME280;45043;51.068;7.026;2023-04-20T06:24:08;100496.66;;;7.74;43.13
59272;BME280;45043;51.068;7.026;2023-04-20T06:27:09;100496.56;;;7.82;42.95
59272;BME280;45043;51.068;7.026;2023-04-20T06:30:10;100502.25;;;7.79;42.53
59272;BME280;45043;51.068;7.026;2023-04-20T06:33:10;100496.03;;;7.72;43.04
59272;BME280;45043;51.068;7.026;2023-04-20T06:36:16;100497.88;;;7.64;42.84
59272;BME280;45043;51.068;7.026;2023-04-20T06:39:16;100490.59;;;7.66;43.55
59272;BME280;45043;51.068;7.026;2023-04-20T06:42:16;100492.84;;;7.77;43.20
59272;BME280;45043;51.068;7.026;2023-04-20T06:45:17;100494.31;;;7.79;43.27
59272;BME280;45043;51.068;7.026;2023-04-20T06:48:18;100495.59;;;7.83;43.17
59272;BME280;45043;51.068;7.026;2023-04-20T06:51:18;100486.94;;;7.90;43.28
59272;BME280;45043;51.068;7.026;2023-04-20T06:54:19;100487.75;;;7.90;43.38
59272;BME280;45043;51.068;7.026;2023-04-20T06:57:20;100489.06;;;7.94;43.55
59272;BME280;45043;51.068;7.026;2023-04-20T07:00:21;100477.84;;;8.07;43.33
59272;BME280;45043;51.068;7.026;2023-04-20T07:03:21;100482.34;;;8.06;43.27
59272;BME280;45043;51.068;7.026;2023-04-20T07:06:22;100470.75;;;8.22;43.21
59272;BME280;45043;51.068;7.026;2023-04-20T07:09:24;100483.94;;;8.30;43.03
59272;BME280;45043;51.068;7.026;2023-04-20T07:12:24;100480.94;;;8.34;43.13
59272;BME280;45043;51.068;7.026;2023-04-20T07:15:25;100485.78;;;8.45;43.02
59272;BME280;45043;51.068;7.026;2023-04-20T07:18:25;100478.75;;;8.52;42.75
59272;BME280;45043;51.068;7.026;2023-04-20T07:21:25;100481.50;;;8.44;42.79
59272;BME280;45043;51.068;7.026;2023-04-20T07:24:26;100478.28;;;8.34;42.87
59272;BME280;45043;51.068;7.026;2023-04-20T07:27:28;100479.66;;;8.29;42.72
59272;BME280;45043;51.068;7.026;2023-04-20T07:30:29;100476.00;;;8.30;43.07
59272;BME280;45043;51.068;7.026;2023-04-20T07:33:30;100472.88;;;8.27;42.90
59272;BME280;45043;51.068;7.026;2023-04-20T07:36:31;100475.53;;;8.27;42.81
59272;BME280;45043;51.068;7.026;2023-04-20T07:39:32;100476.06;;;8.22;42.99
59272;BME280;45043;51.068;7.026;2023-04-20T07:42:33;100475.94;;;8.16;42.98
59272;BME280;45043;51.068;7.026;2023-04-20T07:45:38;100467.47;;;8.05;42.81
59272;BME280;45043;51.068;7.026;2023-04-20T07:48:40;100478.22;;;8.04;42.75
59272;BME280;45043;51.068;7.026;2023-04-20T07:51:41;100474.56;;;8.05;42.72
59272;BME280;45043;51.068;7.026;2023-04-20T07:54:41;100468.91;;;8.08;42.50
59272;BME280;45043;51.068;7.026;2023-04-20T07:57:42;100474.31;;;8.15;42.36
59272;BME280;45043;51.068;7.026;2023-04-20T08:00:44;100469.84;;;8.15;42.36
59272;BME280;45043;51.068;7.026;2023-04-20T08:03:46;100470.38;;;8.11;42.18
59272;BME280;45043;51.068;7.026;2023-04-20T08:06:47;100467.75;;;8.11;42.22
59272;BME280;45043;51.068;7.026;2023-04-20T08:09:47;100467.75;;;8.11;42.14
59272;BME280;45043;51.068;7.026;2023-04-20T08:12:47;100467.47;;;8.05;42.09
59272;BME280;45043;51.068;7.026;2023-04-20T08:15:48;100465.63;;;8.06;42.35
59272;BME280;45043;51.068;7.026;2023-04-20T08:18:48;100467.16;;;8.00;42.15
59272;BME280;45043;51.068;7.026;2023-04-20T08:21:50;100459.78;;;7.96;42.24
59272;BME280;45043;51.068;7.026;2023-04-20T08:24:50;100458.31;;;7.93;42.03
59272;BME280;45043;51.068;7.026;2023-04-20T08:27:51;100465.78;;;7.90;42.23
59272;BME280;45043;51.068;7.026;2023-04-20T08:30:52;100462.16;;;7.91;42.31
59272;BME280;45043;51.068;7.026;2023-04-20T08:33:52;100467.06;;;7.94;42.13
59272;BME280;45043;51.068;7.026;2023-04-20T08:36:53;100462.41;;;7.96;42.16
59272;BME280;45043;51.068;7.026;2023-04-20T08:39:53;100450.13;;;8.03;42.14
59272;BME280;45043;51.068;7.026;2023-04-20T08:42:55;100455.69;;;8.08;42.02
59272;BME280;45043;51.068;7.026;2023-04-20T08:45:57;100457.69;;;8.06;41.90
59272;BME280;45043;51.068;7.026;2023-04-20T08:48:59;100455.06;;;8.06;41.60
59272;BME280;45043;51.068;7.026;2023-04-20T08:52:01;100445.84;;;8.02;41.61
59272;BME280;45043;51.068;7.026;2023-04-20T08:55:02;100453.38;;;8.05;41.89
59272;BME280;45043;51.068;7.026;2023-04-20T08:58:02;100453.97;;;8.15;41.83
59272;BME280;45043;51.068;7.026;2023-04-20T09:01:03;100453.53;;;8.26;41.84
59272;BME280;45043;51.068;7.026;2023-04-20T09:04:20;100445.06;;;8.46;41.38
59272;BME280;45043;51.068;7.026;2023-04-20T09:07:21;100451.81;;;8.63;41.20
59272;BME280;45043;51.068;7.026;2023-04-20T09:10:22;100440.25;;;8.86;41.08
59272;BME280;45043;51.068;7.026;2023-04-20T09:13:24;100440.50;;;9.06;40.60
59272;BME280;45043;51.068;7.026;2023-04-20T09:16:25;100437.81;;;9.20;40.40
59272;BME280;45043;51.068;7.026;2023-04-20T09:19:27;100438.28;;;9.31;39.58
59272;BME280;45043;51.068;7.026;2023-04-20T09:22:29;100434.09;;;9.36;39.55
59272;BME280;45043;51.068;7.026;2023-04-20T09:25:31;100441.22;;;9.36;38.87
59272;BME280;45043;51.068;7.026;2023-04-20T09:28:36;100426.94;;;9.37;38.87
59272;BME280;45043;51.068;7.026;2023-04-20T09:31:38;100425.69;;;9.33;39.00
59272;BME280;45043;51.068;7.026;2023-04-20T09:34:43;100422.84;;;9.34;38.24
59272;BME280;45043;51.068;7.026;2023-04-20T09:37:47;100431.44;;;9.36;38.23
59272;BME280;45043;51.068;7.026;2023-04-20T09:40:48;100424.06;;;9.32;38.41
59272;BME280;45043;51.068;7.026;2023-04-20T09:43:49;100433.00;;;9.31;38.35
59272;BME280;45043;51.068;7.026;2023-04-20T09:46:51;100426.72;;;9.32;38.45
59272;BME280;45043;51.068;7.026;2023-04-20T09:49:52;100428.50;;;9.31;38.69
59272;BME280;45043;51.068;7.026;2023-04-20T09:52:53;100424.81;;;9.25;38.32
59272;BME280;45043;51.068;7.026;2023-04-20T09:55:54;100423.16;;;9.24;38.20
59272;BME280;45043;51.068;7.026;2023-04-20T09:58:58;100434.59;;;9.25;38.63
59272;BME280;45043;51.068;7.026;2023-04-20T10:01:59;100429.97;;;9.12;38.44
59272;BME280;45043;51.068;7.026;2023-04-20T10:05:00;100421.84;;;8.77;39.17
59272;BME280;45043;51.068;7.026;2023-04-20T10:08:02;100425.81;;;8.37;39.93
59272;BME280;45043;51.068;7.026;2023-04-20T10:11:02;100432.38;;;8.26;40.35
59272;BME280;45043;51.068;7.026;2023-04-20T10:14:19;100426.97;;;8.35;40.76
59272;BME280;45043;51.068;7.026;2023-04-20T10:17:29;100427.16;;;8.48;40.49
59272;BME280;45043;51.068;7.026;2023-04-20T10:20:30;100414.13;;;8.61;40.32
59272;BME280;45043;51.068;7.026;2023-04-20T10:23:31;100415.19;;;8.67;39.95
59272;BME280;45043;51.068;7.026;2023-04-20T10:26:35;100424.28;;;8.79;39.60
59272;BME280;45043;51.068;7.026;2023-04-20T10:29:37;100420.41;;;8.96;38.73
59272;BME280;45043;51.068;7.026;2023-04-20T10:32:37;100405.94;;;9.14;38.36
59272;BME280;45043;51.068;7.026;2023-04-20T10:38:42;100400.94;;;9.68;37.05
59272;BME280;45043;51.068;7.026;2023-04-20T10:41:53;100389.69;;;9.66;36.51
59272;BME280;45043;51.068;7.026;2023-04-20T10:44:54;100383.22;;;9.75;36.30
59272;BME280;45043;51.068;7.026;2023-04-20T10:47:55;100399.72;;;9.71;36.16
59272;BME280;45043;51.068;7.026;2023-04-20T10:50:55;100392.13;;;9.61;36.27
59272;BME280;45043;51.068;7.026;2023-04-20T10:54:06;100396.94;;;9.51;36.57
59272;BME280;45043;51.068;7.026;2023-04-20T10:57:07;100395.38;;;9.42;36.74
59272;BME280;45043;51.068;7.026;2023-04-20T11:00:19;100394.00;;;9.24;36.72
59272;BME280;45043;51.068;7.026;2023-04-20T11:03:21;100398.78;;;9.14;36.71
59272;BME280;45043;51.068;7.026;2023-04-20T11:06:21;100400.25;;;9.17;37.06
59272;BME280;45043;51.068;7.026;2023-04-20T11:09:24;100405.72;;;8.94;37.51
59272;BME280;45043;51.068;7.026;2023-04-20T11:12:37;100398.66;;;8.79;38.28
59272;BME280;45043;51.068;7.026;2023-04-20T11:15:37;100397.66;;;9.45;37.51
59272;BME280;45043;51.068;7.026;2023-04-20T11:18:49;100396.69;;;8.88;38.56
59272;BME280;45043;51.068;7.026;2023-04-20T11:21:53;100394.84;;;8.89;38.48
59272;BME280;45043;51.068;7.026;2023-04-20T11:25:02;100391.69;;;8.78;37.80
59272;BME280;45043;51.068;7.026;2023-04-20T11:28:08;100388.34;;;8.70;37.97
59272;BME280;45043;51.068;7.026;2023-04-20T11:31:15;100388.25;;;8.63;38.02
59272;BME280;45043;51.068;7.026;2023-04-20T11:34:16;100386.44;;;8.49;37.94
59272;BME280;45043;51.068;7.026;2023-04-20T11:37:17;100376.50;;;8.51;37.77
59272;BME280;45043;51.068;7.026;2023-04-20T11:40:17;100386.69;;;8.69;37.51
59272;BME280;45043;51.068;7.026;2023-04-20T11:43:18;100377.00;;;8.76;37.46
59272;BME280;45043;51.068;7.026;2023-04-20T11:46:18;100395.53;;;8.76;37.86
59272;BME280;45043;51.068;7.026;2023-04-20T11:49:20;100386.75;;;8.75;37.60
59272;BME280;45043;51.068;7.026;2023-04-20T11:52:20;100387.50;;;8.69;37.56
59272;BME280;45043;51.068;7.026;2023-04-20T11:55:21;100388.16;;;8.56;37.53
59272;BME280;45043;51.068;7.026;2023-04-20T11:58:21;100381.91;;;8.43;37.45
59272;BME280;45043;51.068;7.026;2023-04-20T12:01:22;100381.91;;;8.43;37.64
59272;BME280;45043;51.068;7.026;2023-04-20T12:04:22;100387.72;;;8.53;37.73
59272;BME280;45043;51.068;7.026;2023-04-20T12:07:22;100386.50;;;8.70;37.55
59272;BME280;45043;51.068;7.026;2023-04-20T12:10:23;100383.03;;;9.06;37.43
59272;BME280;45043;51.068;7.026;2023-04-20T12:13:24;100388.00;;;9.37;36.78
59272;BME280;45043;51.068;7.026;2023-04-20T12:16:24;100391.53;;;9.44;36.08
59272;BME280;45043;51.068;7.026;2023-04-20T12:19:25;100390.47;;;9.60;35.78
59272;BME280;45043;51.068;7.026;2023-04-20T12:22:26;100396.63;;;9.67;35.24
59272;BME280;45043;51.068;7.026;2023-04-20T12:25:27;100392.94;;;9.62;35.42
59272;BME280;45043;51.068;7.026;2023-04-20T12:28:27;100378.31;;;9.72;35.42
59272;BME280;45043;51.068;7.026;2023-04-20T12:31:27;100375.09;;;9.77;35.17
59272;BME280;45043;51.068;7.026;2023-04-20T12:34:28;100377.09;;;9.75;35.18
59272;BME280;45043;51.068;7.026;2023-04-20T12:37:28;100366.53;;;9.82;34.62
59272;BME280;45043;51.068;7.026;2023-04-20T12:40:29;100371.69;;;9.90;35.39
59272;BME280;45043;51.068;7.026;2023-04-20T12:43:29;100363.44;;;10.06;34.89
59272;BME280;45043;51.068;7.026;2023-04-20T12:46:30;100373.47;;;10.11;34.28
59272;BME280;45043;51.068;7.026;2023-04-20T12:49:31;100377.09;;;10.03;33.93
59272;BME280;45043;51.068;7.026;2023-04-20T12:52:32;100373.84;;;10.08;33.55
59272;BME280;45043;51.068;7.026;2023-04-20T12:55:32;100364.44;;;10.05;33.75
59272;BME280;45043;51.068;7.026;2023-04-20T12:58:33;100360.78;;;10.06;33.83
59272;BME280;45043;51.068;7.026;2023-04-20T13:01:34;100363.22;;;10.08;34.35
59272;BME280;45043;51.068;7.026;2023-04-20T13:04:34;100367.16;;;10.18;34.40
59272;BME280;45043;51.068;7.026;2023-04-20T13:07:35;100360.47;;;10.70;33.59
59272;BME280;45043;51.068;7.026;2023-04-20T13:10:38;100354.22;;;11.25;33.04
59272;BME280;45043;51.068;7.026;2023-04-20T13:13:39;100346.66;;;11.61;31.94
59272;BME280;45043;51.068;7.026;2023-04-20T13:16:39;100353.59;;;11.96;31.58
59272;BME280;45043;51.068;7.026;2023-04-20T13:19:40;100342.88;;;12.15;30.74
59272;BME280;45043;51.068;7.026;2023-04-20T13:22:40;100344.63;;;11.77;31.19
59272;BME280;45043;51.068;7.026;2023-04-20T13:25:40;100348.28;;;11.49;31.27
59272;BME280;45043;51.068;7.026;2023-04-20T13:28:41;100347.88;;;11.26;31.53
59272;BME280;45043;51.068;7.026;2023-04-20T13:31:42;100334.41;;;11.20;31.71
59272;BME280;45043;51.068;7.026;2023-04-20T13:34:42;100347.06;;;11.58;31.49
59272;BME280;45043;51.068;7.026;2023-04-20T13:37:43;100336.00;;;11.95;31.17
59272;BME280;45043;51.068;7.026;2023-04-20T13:40:45;100328.91;;;12.27;30.62
59272;BME280;45043;51.068;7.026;2023-04-20T13:43:46;100332.25;;;12.54;30.58
59272;BME280;45043;51.068;7.026;2023-04-20T13:46:47;100332.88;;;12.94;30.46
59272;BME280;45043;51.068;7.026;2023-04-20T13:49:47;100313.19;;;13.45;29.93
59272;BME280;45043;51.068;7.026;2023-04-20T13:52:48;100311.47;;;13.76;29.09
59272;BME280;45043;51.068;7.026;2023-04-20T13:55:49;100301.22;;;14.09;28.54
59272;BME280;45043;51.068;7.026;2023-04-20T13:58:49;100297.38;;;14.54;27.86
59272;BME280;45043;51.068;7.026;2023-04-20T14:01:50;100296.63;;;14.95;27.01
59272;BME280;45043;51.068;7.026;2023-04-20T14:04:50;100298.03;;;15.21;26.35
59272;BME280;45043;51.068;7.026;2023-04-20T14:07:51;100287.81;;;15.53;25.54
59272;BME280;45043;51.068;7.026;2023-04-20T14:10:51;100300.56;;;15.98;25.79
59272;BME280;45043;51.068;7.026;2023-04-20T14:13:52;100302.28;;;16.16;24.72
59272;BME280;45043;51.068;7.026;2023-04-20T14:16:52;100302.22;;;15.99;24.90
59272;BME280;45043;51.068;7.026;2023-04-20T14:19:52;100305.25;;;15.91;24.76
59272;BME280;45043;51.068;7.026;2023-04-20T14:22:53;100298.69;;;16.51;24.19
59272;BME280;45043;51.068;7.026;2023-04-20T14:25:53;100301.84;;;16.93;24.10
59272;BME280;45043;51.068;7.026;2023-04-20T14:28:54;100315.19;;;16.60;24.21
59272;BME280;45043;51.068;7.026;2023-04-20T14:31:54;100313.09;;;15.69;24.33
59272;BME280;45043;51.068;7.026;2023-04-20T14:34:55;100313.78;;;15.65;24.48
59272;BME280;45043;51.068;7.026;2023-04-20T14:37:55;100299.44;;;16.35;24.13
59272;BME280;45043;51.068;7.026;2023-04-20T14:40:56;100300.44;;;16.91;23.04
59272;BME280;45043;51.068;7.026;2023-04-20T14:43:57;100310.09;;;16.18;23.66
59272;BME280;45043;51.068;7.026;2023-04-20T14:46:57;100308.41;;;15.88;24.20
59272;BME280;45043;51.068;7.026;2023-04-20T14:49:58;100303.41;;;15.33;24.42
59272;BME280;45043;51.068;7.026;2023-04-20T14:52:58;100303.41;;;14.79;25.07
59272;BME280;45043;51.068;7.026;2023-04-20T14:55:59;100297.94;;;14.44;25.17
59272;BME280;45043;51.068;7.026;2023-04-20T14:58:59;100282.53;;;14.58;24.92
59272;BME280;45043;51.068;7.026;2023-04-20T15:02:00;100292.00;;;15.14;25.23
59272;BME280;45043;51.068;7.026;2023-04-20T15:05:01;100288.09;;;16.04;24.37
59272;BME280;45043;51.068;7.026;2023-04-20T15:08:02;100278.13;;;16.57;23.79
59272;BME280;45043;51.068;7.026;2023-04-20T15:11:02;100271.56;;;16.36;23.60
59272;BME280;45043;51.068;7.026;2023-04-20T15:14:04;100268.44;;;15.87;24.28
59272;BME280;45043;51.068;7.026;2023-04-20T15:17:04;100267.00;;;15.56;24.60
59272;BME280;45043;51.068;7.026;2023-04-20T15:20:06;100268.47;;;15.16;25.02
59272;BME280;45043;51.068;7.026;2023-04-20T15:23:06;100264.97;;;14.80;24.86
59272;BME280;45043;51.068;7.026;2023-04-20T15:26:07;100264.69;;;14.40;24.87
59272;BME280;45043;51.068;7.026;2023-04-20T15:29:08;100255.53;;;14.90;23.99
59272;BME280;45043;51.068;7.026;2023-04-20T15:32:08;100251.09;;;15.89;23.26
59272;BME280;45043;51.068;7.026;2023-04-20T15:35:09;100246.78;;;16.74;22.72
59272;BME280;45043;51.068;7.026;2023-04-20T15:38:09;100234.25;;;17.30;22.19
59272;BME280;45043;51.068;7.026;2023-04-20T15:41:10;100233.91;;;17.87;21.97
59272;BME280;45043;51.068;7.026;2023-04-20T15:44:11;100235.81;;;18.36;21.20
59272;BME280;45043;51.068;7.026;2023-04-20T15:47:12;100224.47;;;18.61;21.01
59272;BME280;45043;51.068;7.026;2023-04-20T15:50:12;100231.59;;;19.04;20.65
59272;BME280;45043;51.068;7.026;2023-04-20T15:53:13;100239.22;;;19.65;19.75
59272;BME280;45043;51.068;7.026;2023-04-20T15:56:13;100228.66;;;20.16;19.15
59272;BME280;45043;51.068;7.026;2023-04-20T15:59:14;100241.69;;;20.86;18.90
59272;BME280;45043;51.068;7.026;2023-04-20T16:02:14;100242.75;;;22.00;18.09